Time;durP1;ratioP1;P1;durP2;ratioP2;P2;SDS_P1;SDS_P2;PMS_P1;PMS_P2;Temp;Humidity;BMP_temperature;BMP_pressure;BME280_temperature;BME280_humidity;BME280_pressure;Samples;Min_cycle;Max_cycle;Signal;HPM_P1;HPM_P2
2023/06/21 00:00:28;;;;;;;24.73;9.53;;;24.10;99.90;;;;;;5061266;28;20585;-67
2023/06/21 00:02:54;;;;;;;27.05;9.07;;;24.10;99.90;;;;;;5058328;28;20107;-69
2023/06/21 00:05:19;;;;;;;19.15;9.00;;;24.00;99.90;;;;;;5062024;28;20040;-69
2023/06/21 00:07:47;;;;;;;18.20;9.23;;;23.90;99.90;;;;;;5052438;28;21035;-70
2023/06/21 00:10:13;;;;;;;23.65;9.07;;;23.80;99.90;;;;;;5057764;28;20032;-68
2023/06/21 00:12:39;;;;;;;31.08;10.73;;;23.70;99.90;;;;;;5054882;28;20036;-68
2023/06/21 00:15:05;;;;;;;24.20;8.65;;;23.60;99.90;;;;;;5056453;28;20289;-67
2023/06/21 00:17:30;;;;;;;20.75;8.38;;;23.50;99.90;;;;;;5037958;28;20067;-68
2023/06/21 00:19:56;;;;;;;24.90;8.85;;;23.40;99.90;;;;;;5057679;28;20460;-67
2023/06/21 00:22:22;;;;;;;20.83;9.63;;;23.40;99.90;;;;;;5058070;28;20075;-67
2023/06/21 00:24:54;;;;;;;20.55;8.88;;;23.40;99.90;;;;;;5059596;28;20290;-69
2023/06/21 00:27:20;;;;;;;27.48;8.82;;;23.50;99.90;;;;;;5061286;28;20078;-69
2023/06/21 00:29:45;;;;;;;26.50;9.30;;;23.30;99.90;;;;;;5055997;28;20029;-68
2023/06/21 00:32:11;;;;;;;23.93;9.23;;;23.20;99.90;;;;;;5058106;28;20029;-69
2023/06/21 00:34:37;;;;;;;23.13;9.23;;;23.20;99.90;;;;;;5059262;28;20029;-67
2023/06/21 00:37:02;;;;;;;29.07;9.50;;;23.40;99.90;;;;;;5056897;28;20450;-68
2023/06/21 00:39:29;;;;;;;24.33;9.57;;;23.50;99.90;;;;;;5042424;28;20391;-67
2023/06/21 00:41:55;;;;;;;18.52;8.43;;;23.50;99.90;;;;;;5060218;28;20033;-67
2023/06/21 00:44:20;;;;;;;24.45;9.30;;;23.50;99.90;;;;;;5057801;28;20078;-66
2023/06/21 00:46:46;;;;;;;17.92;8.63;;;23.40;99.90;;;;;;5037207;28;20032;-67
2023/06/21 00:49:11;;;;;;;17.63;8.70;;;23.30;99.90;;;;;;5061860;28;20039;-67
2023/06/21 00:51:38;;;;;;;15.37;8.13;;;23.30;99.90;;;;;;5060422;28;20104;-67
2023/06/21 00:54:05;;;;;;;;;;;23.20;99.90;;;;;;5060467;28;20040;-70
2023/06/21 00:56:33;;;;;;;12.80;6.82;;;23.20;99.90;;;;;;5060128;28;20261;-67
2023/06/21 00:58:59;;;;;;;13.68;6.97;;;23.10;99.90;;;;;;5054808;28;20079;-67
2023/06/21 01:01:26;;;;;;;11.88;7.35;;;23.00;99.90;;;;;;5057644;28;20082;-68
2023/06/21 01:03:55;;;;;;;13.15;7.18;;;23.10;99.90;;;;;;5061489;28;20029;-67
2023/06/21 01:06:34;;;;;;;16.10;6.82;;;23.20;99.90;;;;;;5052442;28;20032;-67
2023/06/21 01:09:25;;;;;;;18.90;7.65;;;23.20;99.90;;;;;;5057103;28;20049;-67
2023/06/21 01:11:57;;;;;;;12.43;6.82;;;23.00;99.90;;;;;;5058014;28;20119;-67
2023/06/21 01:14:41;;;;;;;15.35;7.25;;;22.80;99.90;;;;;;5058919;28;20034;-67
2023/06/21 01:17:09;;;;;;;12.13;6.80;;;22.90;99.90;;;;;;5063683;28;20029;-68
2023/06/21 01:19:53;;;;;;;10.23;5.90;;;22.80;99.90;;;;;;5058416;28;20056;-68
2023/06/21 01:22:22;;;;;;;16.25;6.82;;;22.60;99.90;;;;;;5057482;28;20075;-68
2023/06/21 01:25:24;;;;;;;12.13;6.30;;;22.40;99.90;;;;;;5056220;28;20047;-69
2023/06/21 01:28:23;;;;;;;12.48;6.65;;;22.30;99.90;;;;;;5062958;28;20086;-69
2023/06/21 01:30:50;;;;;;;11.02;6.72;;;22.20;99.90;;;;;;5062327;28;20063;-67
2023/06/21 01:33:17;;;;;;;;;;;22.20;99.90;;;;;;5064583;28;20046;-69
2023/06/21 01:35:43;;;;;;;12.55;5.78;;;22.20;99.90;;;;;;5064427;28;20346;-67
2023/06/21 01:38:09;;;;;;;10.82;6.07;;;22.10;99.90;;;;;;5062537;28;20052;-68
2023/06/21 01:40:38;;;;;;;12.23;6.13;;;22.00;99.90;;;;;;5066316;28;20480;-69
2023/06/21 01:43:05;;;;;;;9.20;5.95;;;22.00;99.90;;;;;;5057750;28;20059;-69
2023/06/21 01:45:31;;;;;;;16.98;5.97;;;22.00;99.90;;;;;;5059600;28;20035;-69
2023/06/21 01:47:58;;;;;;;13.90;5.90;;;21.90;99.90;;;;;;5060798;28;20020;-67
2023/06/21 01:50:24;;;;;;;11.63;5.63;;;21.80;99.90;;;;;;5065010;28;20157;-67
2023/06/21 01:52:51;;;;;;;;;;;21.80;99.90;;;;;;5066894;28;20032;-67
2023/06/21 01:55:19;;;;;;;11.10;5.97;;;21.70;99.90;;;;;;5063384;28;19915;-69
2023/06/21 01:57:44;;;;;;;13.48;6.88;;;21.60;99.90;;;;;;5061770;28;20061;-69
2023/06/21 02:00:21;;;;;;;14.40;6.22;;;21.50;99.90;;;;;;5066321;28;20017;-68
2023/06/21 02:02:56;;;;;;;9.77;5.78;;;21.50;99.90;;;;;;5060239;28;20495;-70
2023/06/21 02:05:22;;;;;;;12.50;6.30;;;21.60;99.90;;;;;;5058173;28;20090;-69
2023/06/21 02:07:49;;;;;;;11.35;7.13;;;21.60;99.90;;;;;;5062304;28;20436;-69
2023/06/21 02:10:15;;;;;;;;;;;21.60;99.90;;;;;;5043421;28;20036;-67
2023/06/21 02:12:41;;;;;;;13.85;6.85;;;21.50;99.90;;;;;;5061186;28;20288;-66
2023/06/21 02:15:08;;;;;;;;;;;21.40;99.90;;;;;;5061458;28;20067;-67
2023/06/21 02:17:34;;;;;;;13.60;6.88;;;21.30;99.90;;;;;;5066324;28;19916;-69
2023/06/21 02:19:59;;;;;;;17.85;7.75;;;21.20;99.90;;;;;;5059868;28;20035;-67
2023/06/21 02:22:25;;;;;;;20.63;9.00;;;21.20;99.90;;;;;;5059076;28;20435;-68
2023/06/21 02:24:50;;;;;;;10.93;6.97;;;21.20;99.90;;;;;;5060650;28;20033;-67
2023/06/21 02:27:16;;;;;;;16.77;8.33;;;21.20;99.90;;;;;;5062471;28;20032;-67
2023/06/21 02:29:43;;;;;;;18.67;7.67;;;21.30;99.90;;;;;;5063081;28;20553;-67
2023/06/21 02:32:08;;;;;;;12.68;6.55;;;21.30;99.90;;;;;;5058961;28;20078;-67
2023/06/21 02:34:34;;;;;;;12.00;6.63;;;21.20;99.90;;;;;;5064863;28;20039;-67
2023/06/21 02:37:00;;;;;;;20.60;8.70;;;21.20;99.90;;;;;;5062939;28;20283;-68
2023/06/21 02:39:25;;;;;;;16.97;7.70;;;21.10;99.90;;;;;;5060720;28;20506;-68
2023/06/21 02:41:52;;;;;;;18.13;8.73;;;21.20;99.90;;;;;;5050383;28;20152;-68
2023/06/21 02:44:18;;;;;;;16.60;8.93;;;21.10;99.90;;;;;;5061174;28;20168;-68
2023/06/21 02:46:43;;;;;;;20.38;8.70;;;21.00;99.90;;;;;;5059233;28;20028;-67
2023/06/21 02:49:09;;;;;;;23.00;8.97;;;21.00;99.90;;;;;;5061317;28;20082;-67
2023/06/21 02:51:36;;;;;;;26.53;9.93;;;20.90;99.90;;;;;;5058343;28;20396;-68
2023/06/21 02:54:01;;;;;;;21.38;9.52;;;20.90;99.90;;;;;;5060056;28;20021;-67
2023/06/21 02:56:30;;;;;;;17.20;8.50;;;20.90;99.90;;;;;;5061324;28;20372;-68
2023/06/21 02:58:56;;;;;;;23.70;9.80;;;20.90;99.90;;;;;;5056879;28;20079;-67
2023/06/21 03:01:21;;;;;;;17.52;9.20;;;20.80;99.90;;;;;;5060269;28;20016;-67
2023/06/21 03:03:47;;;;;;;17.88;9.23;;;20.80;99.90;;;;;;5060979;28;20045;-68
2023/06/21 03:06:13;;;;;;;20.20;9.37;;;20.70;99.90;;;;;;5060297;28;20100;-67
2023/06/21 03:08:38;;;;;;;20.53;9.57;;;20.60;99.90;;;;;;5065644;28;20032;-70
2023/06/21 03:11:12;;;;;;;24.10;10.23;;;20.70;99.90;;;;;;5058999;28;20459;-67
2023/06/21 03:13:38;;;;;;;21.73;9.73;;;20.70;99.90;;;;;;5061076;28;20036;-68
2023/06/21 03:16:04;;;;;;;24.60;10.23;;;20.70;99.90;;;;;;5061316;28;20481;-67
2023/06/21 03:18:30;;;;;;;;;;;20.70;99.90;;;;;;5058143;28;20036;-67
2023/06/21 03:21:00;;;;;;;24.10;10.57;;;20.70;99.90;;;;;;5059655;28;20296;-67
2023/06/21 03:23:26;;;;;;;20.65;10.05;;;20.80;99.90;;;;;;5059278;28;20060;-68
2023/06/21 03:25:52;;;;;;;22.35;9.50;;;20.80;99.90;;;;;;5057296;28;20068;-67
2023/06/21 03:28:18;;;;;;;18.63;9.43;;;20.80;99.90;;;;;;5062488;28;20040;-68
2023/06/21 03:30:44;;;;;;;25.30;10.20;;;20.90;99.90;;;;;;5062371;28;20024;-68
2023/06/21 03:33:10;;;;;;;19.15;8.75;;;21.10;99.90;;;;;;5060509;28;20036;-69
2023/06/21 03:35:36;;;;;;;19.63;8.57;;;21.20;99.90;;;;;;5064836;28;20024;-67
2023/06/21 03:38:02;;;;;;;18.35;8.32;;;21.20;99.90;;;;;;5059203;28;20040;-68
2023/06/21 03:40:28;;;;;;;16.48;8.57;;;21.20;99.90;;;;;;5061991;28;20028;-69
2023/06/21 03:42:54;;;;;;;19.95;9.38;;;21.10;99.90;;;;;;5060794;28;20099;-68
2023/06/21 03:45:20;;;;;;;16.23;8.63;;;21.00;99.90;;;;;;5060050;28;20162;-67
2023/06/21 03:47:46;;;;;;;17.65;9.00;;;21.00;99.90;;;;;;5059986;28;20043;-68
2023/06/21 03:50:13;;;;;;;17.25;9.05;;;21.00;99.90;;;;;;5061041;28;20033;-66
2023/06/21 03:52:39;;;;;;;14.93;8.27;;;21.10;99.90;;;;;;5058514;28;20040;-67
2023/06/21 03:55:06;;;;;;;;;;;21.10;99.90;;;;;;5058737;28;20307;-69
2023/06/21 03:57:33;;;;;;;14.85;8.95;;;20.90;99.90;;;;;;5058215;28;19940;-66
2023/06/21 03:59:59;;;;;;;12.13;7.55;;;21.00;99.90;;;;;;5057473;28;20044;-68
2023/06/21 04:02:24;;;;;;;13.90;7.90;;;21.00;99.90;;;;;;5059722;28;20024;-67
2023/06/21 04:04:51;;;;;;;14.07;7.77;;;21.10;99.90;;;;;;5061480;28;20568;-68
2023/06/21 04:07:21;;;;;;;15.07;7.50;;;20.90;99.90;;;;;;5065719;28;20028;-68
2023/06/21 04:09:47;;;;;;;12.93;7.50;;;20.70;99.90;;;;;;5061573;28;20024;-69
2023/06/21 04:12:13;;;;;;;16.73;8.05;;;20.80;99.90;;;;;;5045462;28;20518;-69
2023/06/21 04:14:39;;;;;;;15.75;7.57;;;20.90;99.90;;;;;;5060360;28;20043;-68
2023/06/21 04:17:05;;;;;;;18.55;7.68;;;20.90;99.90;;;;;;5057947;28;20444;-69
2023/06/21 04:19:31;;;;;;;13.48;8.02;;;21.00;99.90;;;;;;5057618;28;20166;-68
2023/06/21 04:21:56;;;;;;;10.87;7.20;;;21.00;99.90;;;;;;5062157;28;20111;-69
2023/06/21 04:24:22;;;;;;;14.20;7.20;;;20.90;99.90;;;;;;5053695;28;20400;-68
2023/06/21 04:26:48;;;;;;;21.20;8.17;;;21.00;99.90;;;;;;5057164;28;20503;-68
2023/06/21 04:29:16;;;;;;;13.75;8.10;;;21.10;99.90;;;;;;5058005;28;20025;-67
2023/06/21 04:31:42;;;;;;;15.02;7.00;;;21.10;99.90;;;;;;5060558;28;20029;-67
2023/06/21 04:34:08;;;;;;;18.30;7.25;;;21.20;99.90;;;;;;5062239;28;20043;-67
2023/06/21 04:36:34;;;;;;;11.98;6.88;;;21.20;99.90;;;;;;5049690;28;20025;-68
2023/06/21 04:39:00;;;;;;;13.48;7.40;;;21.20;99.90;;;;;;5062168;28;20037;-68
2023/06/21 04:41:26;;;;;;;13.90;7.00;;;21.10;99.90;;;;;;5060640;28;20055;-67
2023/06/21 04:43:52;;;;;;;15.32;8.10;;;21.30;99.90;;;;;;5056097;28;20650;-68
2023/06/21 04:46:18;;;;;;;10.50;6.73;;;21.20;99.90;;;;;;5057875;28;20045;-68
2023/06/21 04:48:46;;;;;;;12.68;7.30;;;20.90;99.90;;;;;;5055424;28;20055;-67
2023/06/21 04:51:15;;;;;;;9.85;6.82;;;20.90;99.90;;;;;;5056808;28;20025;-68
2023/06/21 04:53:49;;;;;;;11.20;6.60;;;21.10;99.90;;;;;;5060080;28;20032;-68
2023/06/21 04:56:16;;;;;;;9.85;5.75;;;21.30;99.90;;;;;;5060600;28;20170;-68
2023/06/21 04:58:41;;;;;;;10.82;6.95;;;21.40;99.90;;;;;;5060419;28;20074;-67
2023/06/21 05:01:07;;;;;;;11.03;6.27;;;21.40;99.90;;;;;;5044134;28;20044;-68
2023/06/21 05:03:33;;;;;;;10.68;6.78;;;21.50;99.90;;;;;;5066073;28;20424;-68
2023/06/21 05:05:59;;;;;;;13.18;6.53;;;21.50;99.90;;;;;;5042320;28;20094;-69
2023/06/21 05:08:25;;;;;;;12.75;6.65;;;21.60;99.90;;;;;;5042165;28;20388;-67
2023/06/21 05:10:51;;;;;;;10.23;7.00;;;21.70;99.90;;;;;;5065954;28;20137;-68
2023/06/21 05:13:17;;;;;;;13.38;6.55;;;21.50;99.90;;;;;;5052951;28;20033;-67
2023/06/21 05:15:43;;;;;;;12.90;6.93;;;21.70;99.90;;;;;;5055912;28;20114;-68
2023/06/21 05:18:08;;;;;;;12.63;6.32;;;21.80;99.90;;;;;;5064136;28;20101;-67
2023/06/21 05:20:34;;;;;;;12.60;6.80;;;21.90;99.90;;;;;;5062741;28;20033;-67
2023/06/21 05:23:00;;;;;;;13.80;6.83;;;22.00;99.90;;;;;;5059808;28;20912;-68
2023/06/21 05:25:26;;;;;;;10.27;6.43;;;21.90;99.90;;;;;;5056100;28;20406;-69
2023/06/21 05:27:51;;;;;;;15.40;7.13;;;22.00;99.90;;;;;;5060976;28;20028;-68
2023/06/21 05:30:18;;;;;;;16.65;6.90;;;21.80;99.90;;;;;;5044853;28;20412;-68
2023/06/21 05:32:44;;;;;;;;;;;22.00;99.90;;;;;;5058360;28;20047;-68
2023/06/21 05:35:09;;;;;;;18.50;6.53;;;22.40;99.90;;;;;;5048693;28;19991;-68
2023/06/21 05:37:35;;;;;;;21.33;6.90;;;22.40;99.90;;;;;;5061712;28;20037;-68
2023/06/21 05:40:02;;;;;;;12.40;6.60;;;22.30;99.90;;;;;;5065822;28;20074;-69
2023/06/21 05:42:29;;;;;;;18.20;6.93;;;22.40;99.90;;;;;;5062315;28;20028;-69
2023/06/21 05:44:55;;;;;;;16.30;6.97;;;22.20;99.90;;;;;;5047681;28;20102;-68
2023/06/21 05:47:20;;;;;;;19.67;7.38;;;22.20;99.90;;;;;;5064767;28;20067;-69
2023/06/21 05:49:48;;;;;;;17.50;7.60;;;22.30;99.90;;;;;;5059892;28;20036;-68
2023/06/21 05:52:15;;;;;;;10.70;6.53;;;22.40;99.90;;;;;;5042777;28;20507;-69
2023/06/21 05:54:43;;;;;;;13.60;7.72;;;22.40;99.90;;;;;;5063441;28;20384;-69
2023/06/21 05:57:09;;;;;;;13.25;6.53;;;22.40;99.90;;;;;;5062253;28;20040;-68
2023/06/21 05:59:34;;;;;;;13.15;7.47;;;22.40;99.90;;;;;;5058117;28;20120;-68
2023/06/21 06:02:00;;;;;;;11.27;6.65;;;22.60;99.90;;;;;;5065762;28;20033;-68
2023/06/21 06:04:25;;;;;;;26.23;7.63;;;22.90;99.90;;;;;;5058545;28;20732;-68
2023/06/21 06:06:51;;;;;;;12.77;6.77;;;22.70;99.90;;;;;;5065815;28;20024;-69
2023/06/21 06:09:17;;;;;;;13.90;7.73;;;22.50;99.90;;;;;;5060579;28;20194;-68
2023/06/21 06:11:42;;;;;;;18.23;8.53;;;22.40;99.90;;;;;;5058909;28;20043;-69
2023/06/21 06:14:10;;;;;;;16.00;7.40;;;22.60;99.90;;;;;;5044713;28;20041;-69
2023/06/21 06:16:36;;;;;;;16.23;7.10;;;22.70;99.90;;;;;;5056078;28;20025;-69
2023/06/21 06:19:02;;;;;;;13.23;5.90;;;22.80;99.90;;;;;;5049175;28;20047;-69
2023/06/21 06:21:28;;;;;;;13.45;7.07;;;22.80;99.90;;;;;;5058613;28;20044;-69
2023/06/21 06:23:54;;;;;;;18.50;7.80;;;22.90;99.90;;;;;;5061579;28;20032;-69
2023/06/21 06:26:22;;;;;;;15.68;8.07;;;23.00;99.90;;;;;;5059452;28;20058;-69
2023/06/21 06:28:48;;;;;;;11.68;7.28;;;23.80;99.90;;;;;;5061933;28;20024;-69
2023/06/21 06:31:14;;;;;;;15.70;7.20;;;24.30;99.90;;;;;;5058906;28;20039;-69
2023/06/21 06:33:40;;;;;;;17.30;7.63;;;23.70;99.90;;;;;;5065278;28;20025;-69
2023/06/21 06:36:06;;;;;;;21.27;7.78;;;23.30;99.90;;;;;;5059351;28;20024;-69
2023/06/21 06:38:32;;;;;;;15.38;7.97;;;23.10;99.90;;;;;;5062180;28;20306;-69
2023/06/21 06:40:57;;;;;;;14.70;7.15;;;23.10;99.90;;;;;;5062886;28;20036;-69
2023/06/21 06:43:23;;;;;;;13.90;8.23;;;23.20;99.90;;;;;;5065527;28;20048;-69
2023/06/21 06:45:48;;;;;;;19.15;7.85;;;23.10;99.90;;;;;;5059233;28;20094;-69
2023/06/21 06:48:14;;;;;;;13.23;7.70;;;23.20;99.90;;;;;;5059527;28;20033;-69
2023/06/21 06:50:42;;;;;;;14.67;6.87;;;23.30;99.90;;;;;;5063479;28;20675;-69
2023/06/21 06:53:08;;;;;;;16.73;7.32;;;24.10;99.90;;;;;;5060619;28;20282;-69
2023/06/21 06:55:34;;;;;;;14.52;6.88;;;24.40;99.90;;;;;;5058786;28;20033;-69
2023/06/21 06:58:01;;;;;;;22.33;8.15;;;24.30;99.90;;;;;;5060322;28;20063;-69
2023/06/21 07:00:27;;;;;;;17.80;7.30;;;25.00;99.90;;;;;;5044030;28;20027;-70
2023/06/21 07:02:57;;;;;;;18.65;8.45;;;25.00;99.90;;;;;;5040356;28;20036;-71
2023/06/21 07:05:23;;;;;;;14.90;7.43;;;24.50;99.90;;;;;;5061348;28;20029;-70
2023/06/21 07:07:52;;;;;;;17.67;7.20;;;25.10;99.90;;;;;;5060848;28;20032;-69
2023/06/21 07:10:19;;;;;;;25.02;8.00;;;25.00;99.90;;;;;;5042127;28;20036;-70
2023/06/21 07:12:44;;;;;;;18.40;7.68;;;25.00;99.90;;;;;;5061907;28;20044;-68
2023/06/21 07:15:11;;;;;;;20.83;7.93;;;24.40;99.90;;;;;;5061748;28;20079;-68
2023/06/21 07:17:37;;;;;;;19.73;7.78;;;24.50;99.90;;;;;;5053889;28;20036;-68
2023/06/21 07:20:06;;;;;;;25.87;8.17;;;24.60;99.90;;;;;;5060535;28;20464;-68
2023/06/21 07:22:32;;;;;;;28.75;8.45;;;24.70;99.90;;;;;;5061373;28;20297;-68
2023/06/21 07:24:58;;;;;;;20.60;7.93;;;25.00;99.90;;;;;;5060121;28;20056;-68
2023/06/21 07:27:25;;;;;;;28.58;8.18;;;25.40;99.90;;;;;;5047711;28;20782;-67
2023/06/21 07:29:51;;;;;;;21.95;7.72;;;25.50;99.90;;;;;;5058341;28;20090;-67
2023/06/21 07:32:17;;;;;;;20.15;8.48;;;25.70;99.90;;;;;;5058142;28;20498;-67
2023/06/21 07:34:42;;;;;;;22.30;8.85;;;25.70;99.90;;;;;;5052853;28;20036;-68
2023/06/21 07:37:08;;;;;;;23.75;7.78;;;25.60;99.90;;;;;;5036863;28;20413;-67
2023/06/21 07:39:34;;;;;;;21.40;8.13;;;25.50;99.90;;;;;;5057708;28;20058;-67
2023/06/21 07:42:04;;;;;;;18.70;8.70;;;25.90;99.90;;;;;;5061635;28;20021;-67
2023/06/21 07:44:30;;;;;;;25.70;7.70;;;26.30;99.90;;;;;;5062098;28;20052;-67
2023/06/21 07:46:56;;;;;;;19.75;8.18;;;26.00;99.90;;;;;;5060238;28;20068;-68
2023/06/21 07:49:21;;;;;;;20.45;9.25;;;25.80;99.90;;;;;;5057293;28;20032;-68
2023/06/21 07:51:47;;;;;;;11.17;7.63;;;26.10;99.90;;;;;;5060622;28;20462;-68
2023/06/21 07:54:13;;;;;;;16.27;7.63;;;25.90;99.90;;;;;;5058638;28;20329;-68
2023/06/21 07:56:39;;;;;;;22.45;8.45;;;25.90;99.90;;;;;;5059610;28;20035;-68
2023/06/21 07:59:04;;;;;;;25.52;7.75;;;25.80;99.90;;;;;;5055281;28;20045;-68
2023/06/21 08:01:30;;;;;;;41.25;10.88;;;25.80;99.90;;;;;;5059841;28;20028;-68
2023/06/21 08:03:57;;;;;;;29.95;9.05;;;25.90;99.90;;;;;;5058532;28;20092;-68
2023/06/21 08:06:23;;;;;;;58.10;15.45;;;26.10;99.90;;;;;;5061462;28;20024;-68
2023/06/21 08:08:49;;;;;;;20.35;8.02;;;25.70;99.90;;;;;;5058454;28;20063;-68
2023/06/21 08:11:14;;;;;;;24.17;8.98;;;25.80;99.90;;;;;;5058823;28;20036;-68
2023/06/21 08:13:40;;;;;;;39.97;11.88;;;26.10;99.90;;;;;;5062365;28;20025;-67
2023/06/21 08:16:05;;;;;;;25.17;8.43;;;26.60;99.90;;;;;;5060473;28;20037;-67
2023/06/21 08:18:31;;;;;;;28.50;7.75;;;26.40;99.80;;;;;;5058943;28;20492;-67
2023/06/21 08:20:57;;;;;;;24.42;7.68;;;26.50;99.90;;;;;;5061172;28;20025;-67
2023/06/21 08:23:22;;;;;;;25.60;8.15;;;26.60;99.40;;;;;;5059673;28;20039;-68
2023/06/21 08:25:48;;;;;;;25.88;9.50;;;27.00;97.80;;;;;;5059353;28;20043;-67
2023/06/21 08:28:14;;;;;;;34.85;10.00;;;27.50;99.50;;;;;;5059137;28;20064;-68
2023/06/21 08:30:39;;;;;;;24.35;7.88;;;27.00;99.50;;;;;;5058473;28;20405;-67
2023/06/21 08:33:05;;;;;;;17.23;7.13;;;26.50;98.10;;;;;;5053732;28;20835;-68
2023/06/21 08:35:31;;;;;;;25.70;8.77;;;26.80;99.70;;;;;;5059338;28;20119;-67
2023/06/21 08:37:58;;;;;;;19.73;8.18;;;27.00;99.40;;;;;;5064069;28;20032;-67
2023/06/21 08:40:30;;;;;;;24.80;7.22;;;26.90;99.90;;;;;;5061344;28;20028;-67
2023/06/21 08:42:56;;;;;;;24.70;8.30;;;26.50;99.90;;;;;;5064456;28;20196;-67
2023/06/21 08:45:22;;;;;;;21.52;8.15;;;26.10;99.90;;;;;;5064293;28;20515;-68
2023/06/21 08:47:51;;;;;;;24.92;9.48;;;26.40;99.90;;;;;;5063822;28;20036;-67
2023/06/21 08:50:21;;;;;;;18.88;7.95;;;26.60;99.90;;;;;;5064331;28;20036;-67
2023/06/21 08:52:49;;;;;;;22.90;9.23;;;26.90;99.90;;;;;;5041875;28;20057;-65
2023/06/21 08:55:16;;;;;;;28.48;9.10;;;26.80;99.90;;;;;;5060224;28;20107;-65
2023/06/21 08:58:00;;;;;;;27.75;9.68;;;26.30;99.90;;;;;;5063341;28;20483;-68
2023/06/21 09:00:43;;;;;;;30.25;10.10;;;26.40;99.90;;;;;;5064290;28;20021;-67
2023/06/21 09:03:29;;;;;;;22.08;8.52;;;26.30;99.90;;;;;;5044208;28;20159;-67
2023/06/21 09:06:07;;;;;;;23.67;12.23;;;26.40;99.90;;;;;;5062863;28;20028;-68
2023/06/21 09:08:34;;;;;;;26.92;9.93;;;26.40;99.90;;;;;;5064859;28;20066;-68
2023/06/21 09:11:00;;;;;;;20.48;8.98;;;26.30;99.90;;;;;;5063091;28;20038;-69
2023/06/21 09:13:27;;;;;;;23.40;11.20;;;26.10;99.90;;;;;;5048288;28;20703;-69
2023/06/21 09:15:54;;;;;;;31.17;9.98;;;26.20;99.90;;;;;;5062431;28;20530;-68
2023/06/21 09:18:21;;;;;;;24.92;8.45;;;27.50;99.90;;;;;;5059717;28;20566;-68
2023/06/21 09:20:49;;;;;;;22.33;8.55;;;28.40;97.70;;;;;;5066805;28;20025;-68
2023/06/21 09:23:14;;;;;;;24.25;8.90;;;27.40;98.70;;;;;;5061093;28;20037;-69
2023/06/21 09:25:42;;;;;;;24.42;8.48;;;26.60;99.40;;;;;;5060715;28;20385;-68
2023/06/21 09:28:07;;;;;;;24.98;7.95;;;26.30;99.90;;;;;;5058585;28;20384;-67
2023/06/21 09:30:33;;;;;;;23.25;9.02;;;26.00;99.90;;;;;;5058948;28;20032;-68
2023/06/21 09:32:59;;;;;;;23.77;8.45;;;26.00;99.90;;;;;;5058589;28;20043;-68
2023/06/21 09:35:25;;;;;;;20.95;8.35;;;25.90;99.90;;;;;;5050425;28;20056;-68
2023/06/21 09:37:50;;;;;;;25.65;8.43;;;25.60;99.90;;;;;;5059613;28;20098;-68
2023/06/21 09:40:16;;;;;;;18.67;8.85;;;25.60;99.90;;;;;;5063118;28;20041;-69
2023/06/21 09:42:44;;;;;;;21.65;9.63;;;25.70;99.90;;;;;;5062685;28;20085;-69
2023/06/21 09:45:11;;;;;;;29.17;8.75;;;25.80;99.90;;;;;;5060012;28;20040;-68
2023/06/21 09:47:42;;;;;;;19.90;8.43;;;25.70;99.90;;;;;;5062408;28;20028;-68
2023/06/21 09:50:10;;;;;;;17.58;9.07;;;25.40;99.90;;;;;;5062609;28;20048;-68
2023/06/21 09:52:36;;;;;;;26.27;8.68;;;25.30;99.90;;;;;;5064284;28;20067;-69
2023/06/21 09:55:04;;;;;;;17.15;7.72;;;25.20;99.90;;;;;;5064918;28;20029;-68
2023/06/21 09:57:31;;;;;;;23.20;8.73;;;25.00;99.90;;;;;;5065407;28;20515;-68
2023/06/21 09:59:59;;;;;;;22.80;8.40;;;24.70;99.90;;;;;;5061561;28;20488;-69
2023/06/21 10:02:26;;;;;;;29.38;9.70;;;24.80;99.90;;;;;;5061188;28;20035;-68
2023/06/21 10:04:54;;;;;;;22.63;8.77;;;24.10;99.90;;;;;;5058964;28;20028;-69
2023/06/21 10:07:21;;;;;;;21.33;10.13;;;24.10;99.90;;;;;;5060454;28;20557;-70
2023/06/21 10:09:48;;;;;;;25.15;10.45;;;24.30;99.90;;;;;;5059595;28;20032;-70
2023/06/21 10:12:15;;;;;;;25.50;9.65;;;24.50;99.90;;;;;;5061804;28;20074;-69
2023/06/21 10:14:42;;;;;;;35.83;11.40;;;24.20;99.90;;;;;;5064975;28;20052;-71
2023/06/21 10:17:08;;;;;;;81.22;22.98;;;24.40;99.90;;;;;;5064015;28;20427;-66
2023/06/21 10:19:35;;;;;;;31.05;10.52;;;24.60;99.90;;;;;;5060588;28;20025;-66
2023/06/21 10:22:09;;;;;;;253.18;58.28;;;24.50;99.90;;;;;;5052320;28;20031;-66
2023/06/21 10:24:51;;;;;;;40.25;13.75;;;24.30;99.90;;;;;;5059056;28;20039;-68
2023/06/21 10:27:19;;;;;;;169.88;44.42;;;24.50;99.90;;;;;;5056996;28;20524;-71
2023/06/21 10:29:51;;;;;;;45.97;17.23;;;24.80;99.90;;;;;;5056753;28;20044;-69
2023/06/21 10:32:17;;;;;;;36.15;13.57;;;24.90;99.90;;;;;;5060315;28;20505;-69
2023/06/21 10:35:01;;;;;;;19.35;10.45;;;24.50;99.90;;;;;;5057662;28;20056;-70
2023/06/21 10:38:04;;;;;;;36.25;14.27;;;24.60;99.90;;;;;;5058773;28;20082;-71
2023/06/21 10:40:30;;;;;;;36.05;12.55;;;24.90;99.90;;;;;;5059800;28;20426;-70
2023/06/21 10:42:58;;;;;;;56.13;24.08;;;24.80;99.90;;;;;;5058562;28;20650;-71
2023/06/21 10:45:24;;;;;;;40.15;16.38;;;24.60;99.90;;;;;;5056775;28;20035;-71
2023/06/21 10:47:53;;;;;;;;;;;24.70;99.90;;;;;;5061640;28;20020;-70
2023/06/21 10:50:20;;;;;;;41.53;16.27;;;24.90;99.90;;;;;;5063414;28;19912;-68
2023/06/21 10:52:47;;;;;;;29.95;12.05;;;25.00;99.90;;;;;;5063491;28;20054;-66
2023/06/21 10:55:14;;;;;;;26.13;11.02;;;25.30;99.90;;;;;;5061104;28;20032;-66
2023/06/21 10:57:40;;;;;;;26.40;10.70;;;25.20;99.90;;;;;;5060538;28;20024;-69
2023/06/21 11:00:08;;;;;;;25.10;11.00;;;25.40;99.90;;;;;;5064345;28;20059;-66
2023/06/21 11:02:34;;;;;;;31.35;11.35;;;25.70;99.90;;;;;;5061356;28;20035;-70
2023/06/21 11:05:13;;;;;;;28.60;10.45;;;26.10;99.90;;;;;;5063484;28;20025;-67
2023/06/21 11:07:53;;;;;;;21.85;10.90;;;25.80;99.90;;;;;;5058835;28;20086;-68
2023/06/21 11:10:30;;;;;;;21.88;9.27;;;25.80;99.90;;;;;;5056479;28;20032;-70
2023/06/21 11:12:56;;;;;;;;;;;26.00;99.90;;;;;;5045575;28;20140;-69
2023/06/21 11:15:24;;;;;;;31.50;13.40;;;26.10;99.90;;;;;;5059266;28;20665;-66
2023/06/21 11:18:07;;;;;;;27.83;11.00;;;26.80;99.90;;;;;;5063434;28;20123;-66
2023/06/21 11:20:50;;;;;;;26.50;10.07;;;27.00;99.90;;;;;;5059545;28;20023;-70
2023/06/21 11:23:18;;;;;;;30.23;12.57;;;26.40;99.90;;;;;;5060866;28;20044;-65
2023/06/21 11:25:51;;;;;;;25.02;10.38;;;26.60;99.90;;;;;;5046747;28;20408;-67
2023/06/21 11:28:24;;;;;;;22.48;9.43;;;27.10;99.90;;;;;;5061363;28;20029;-70
2023/06/21 11:31:08;;;;;;;23.52;8.98;;;27.30;99.90;;;;;;5059730;28;20021;-70
2023/06/21 11:33:53;;;;;;;25.52;9.55;;;27.00;99.90;;;;;;5056011;28;20072;-66
2023/06/21 11:36:28;;;;;;;24.73;10.32;;;27.10;99.90;;;;;;5056511;28;20036;-71
2023/06/21 11:39:05;;;;;;;32.38;9.38;;;26.90;99.90;;;;;;5061497;28;20044;-67
2023/06/21 11:41:43;;;;;;;23.67;9.77;;;26.90;99.90;;;;;;5059229;28;20033;-70
2023/06/21 11:44:12;;;;;;;26.55;10.60;;;26.90;99.90;;;;;;5059994;28;20044;-68
2023/06/21 11:46:45;;;;;;;33.25;11.65;;;27.30;99.90;;;;;;5060278;28;20055;-69
2023/06/21 11:49:11;;;;;;;24.35;9.45;;;27.70;99.90;;;;;;5059802;28;20032;-67
2023/06/21 11:51:48;;;;;;;;;;;27.60;99.90;;;;;;5047230;28;20025;-67
2023/06/21 11:54:28;;;;;;;22.50;11.30;;;27.20;99.90;;;;;;5060845;28;19991;-67
2023/06/21 11:56:54;;;;;;;33.70;9.75;;;27.40;99.90;;;;;;5038800;28;20033;-66
2023/06/21 11:59:23;;;;;;;21.17;8.60;;;27.40;99.50;;;;;;5042960;28;20047;-66
2023/06/21 12:01:48;;;;;;;31.75;9.23;;;27.00;98.60;;;;;;5059118;28;20033;-66
2023/06/21 12:04:24;;;;;;;24.05;10.38;;;27.20;99.90;;;;;;5058228;28;20048;-67
2023/06/21 12:06:50;;;;;;;29.10;12.20;;;27.80;97.80;;;;;;5055364;28;20037;-66
2023/06/21 12:09:16;;;;;;;26.77;10.38;;;28.40;98.10;;;;;;5057592;28;20380;-69
2023/06/21 12:11:42;;;;;;;22.58;10.02;;;28.70;97.30;;;;;;5041218;28;20597;-70
2023/06/21 12:14:09;;;;;;;21.98;12.30;;;28.70;97.00;;;;;;5060460;28;20123;-67
2023/06/21 12:16:34;;;;;;;21.77;10.27;;;28.80;96.80;;;;;;5043072;28;20756;-68
2023/06/21 12:19:00;;;;;;;25.63;11.40;;;28.80;97.60;;;;;;5059932;28;20044;-67
2023/06/21 12:21:26;;;;;;;28.58;10.50;;;28.60;99.30;;;;;;5061249;28;20134;-66
2023/06/21 12:23:58;;;;;;;21.08;10.18;;;28.50;99.90;;;;;;5037954;28;20045;-68
2023/06/21 12:26:27;;;;;;;26.00;12.25;;;28.60;99.90;;;;;;5041198;28;20099;-68
2023/06/21 12:28:52;;;;;;;22.23;10.10;;;28.40;99.90;;;;;;5058735;28;20033;-66
2023/06/21 12:31:18;;;;;;;29.63;10.23;;;28.40;99.90;;;;;;5060116;28;20043;-66
2023/06/21 12:33:45;;;;;;;30.08;10.88;;;28.40;99.90;;;;;;5057139;28;20116;-67
2023/06/21 12:36:26;;;;;;;24.33;9.30;;;28.50;99.90;;;;;;5059864;28;20078;-70
2023/06/21 12:39:05;;;;;;;24.17;9.40;;;28.30;99.90;;;;;;5057445;28;20584;-66
2023/06/21 12:41:33;;;;;;;25.20;10.00;;;28.40;99.90;;;;;;5055081;28;20033;-67